createdAt,value
2019-05-06T00:00:34.159Z,98.31
2019-05-06T00:01:34.183Z,98.50
2019-05-06T00:02:34.174Z,98.88
2019-05-06T00:03:34.377Z,98.97
2019-05-06T00:04:34.113Z,98.79
2019-05-06T00:05:34.115Z,98.97
2019-05-06T00:06:34.660Z,99.26
2019-05-06T00:07:34.023Z,99.55
2019-05-06T00:08:34.524Z,99.45
2019-05-06T00:09:34.854Z,99.26
2019-05-06T00:10:34.279Z,99.99
2019-05-06T00:11:34.593Z,99.84
2019-05-06T00:12:33.654Z,99.99
2019-05-06T00:13:34.346Z,99.99
2019-05-06T00:14:33.967Z,99.99
2019-05-06T00:15:34.270Z,99.99
2019-05-06T00:16:34.725Z,99.99
2019-05-06T00:17:34.907Z,99.99
2019-05-06T00:18:34.214Z,99.99
2019-05-06T00:19:34.152Z,99.99
2019-05-06T00:20:34.808Z,99.99
2019-05-06T00:21:35.539Z,99.99
2019-05-06T00:22:34.315Z,99.99
2019-05-06T00:23:35.357Z,99.99
2019-05-06T00:24:34.756Z,99.99
2019-05-06T00:25:34.864Z,99.99
2019-05-06T00:26:33.973Z,99.99
2019-05-06T00:27:34.202Z,99.99
2019-05-06T00:28:34.007Z,99.99
2019-05-06T00:29:34.911Z,99.99
2019-05-06T00:30:34.552Z,99.99
2019-05-06T00:31:34.525Z,99.99
2019-05-06T00:32:34.805Z,99.99
2019-05-06T00:33:34.093Z,99.99
2019-05-06T00:34:34.079Z,99.99
2019-05-06T00:35:34.294Z,99.99
2019-05-06T00:36:34.459Z,99.99
2019-05-06T00:37:34.872Z,99.99
2019-05-06T00:38:33.986Z,99.99
2019-05-06T00:39:33.724Z,99.99
2019-05-06T00:40:34.007Z,99.99
2019-05-06T00:41:36.254Z,99.99
2019-05-06T00:42:34.718Z,99.99
2019-05-06T00:43:34.475Z,99.99
2019-05-06T00:44:34.655Z,99.99
2019-05-06T00:45:34.131Z,99.99
2019-05-06T00:46:34.428Z,99.99
2019-05-06T00:47:33.995Z,99.99
2019-05-06T00:48:34.190Z,99.99
2019-05-06T00:49:34.486Z,99.99
2019-05-06T00:50:34.896Z,99.99
2019-05-06T00:51:33.810Z,99.99
2019-05-06T00:52:33.984Z,99.99
2019-05-06T00:53:34.691Z,99.99
2019-05-06T00:54:34.062Z,99.99
2019-05-06T00:55:33.775Z,99.99
2019-05-06T00:56:34.092Z,99.99
2019-05-06T00:57:34.039Z,99.99
2019-05-06T00:58:34.805Z,99.99
2019-05-06T00:59:34.561Z,99.99
2019-05-06T01:00:33.743Z,99.99
2019-05-06T01:01:34.548Z,99.99
2019-05-06T01:02:34.265Z,99.99
2019-05-06T01:03:34.785Z,99.99
2019-05-06T01:04:33.842Z,99.99
2019-05-06T01:05:33.738Z,99.99
2019-05-06T01:06:34.508Z,99.99
2019-05-06T01:07:34.465Z,99.99
2019-05-06T01:08:34.889Z,99.99
2019-05-06T01:09:34.399Z,99.99
2019-05-06T01:10:34.350Z,99.99
2019-05-06T01:11:34.584Z,99.99
2019-05-06T01:12:34.621Z,99.99
2019-05-06T01:13:34.975Z,99.99
2019-05-06T01:14:35.074Z,99.99
2019-05-06T01:15:34.387Z,99.99
2019-05-06T01:16:34.568Z,99.99
2019-05-06T01:17:33.896Z,99.99
2019-05-06T01:18:34.044Z,99.99
2019-05-06T01:19:34.185Z,99.99
2019-05-06T01:20:33.965Z,99.99
2019-05-06T01:21:34.215Z,99.99
2019-05-06T01:22:34.181Z,99.99
2019-05-06T01:23:34.190Z,99.99
2019-05-06T01:24:34.521Z,99.99
2019-05-06T01:25:34.609Z,99.99
2019-05-06T01:26:33.711Z,99.99
2019-05-06T01:27:33.742Z,99.99
2019-05-06T01:28:34.088Z,99.99
2019-05-06T01:29:34.730Z,99.99
2019-05-06T01:30:33.710Z,99.99
2019-05-06T01:31:42.258Z,99.99
2019-05-06T01:32:34.526Z,99.99
2019-05-06T01:33:34.926Z,99.99
2019-05-06T01:34:33.895Z,99.99
2019-05-06T01:35:35.054Z,99.99
2019-05-06T01:36:34.273Z,99.99
2019-05-06T01:37:34.598Z,99.99
2019-05-06T01:38:33.985Z,99.99
2019-05-06T01:39:34.153Z,99.99
2019-05-06T01:40:34.543Z,99.99
2019-05-06T01:41:33.828Z,99.99
2019-05-06T01:42:34.468Z,99.99
2019-05-06T01:43:34.559Z,99.99
2019-05-06T01:44:33.932Z,99.99
2019-05-06T01:45:34.746Z,99.99
2019-05-06T01:46:33.958Z,99.99
2019-05-06T01:47:34.515Z,99.99
2019-05-06T01:48:33.664Z,99.99
2019-05-06T01:49:34.016Z,99.99
2019-05-06T01:50:34.435Z,99.99
2019-05-06T01:51:34.607Z,99.99
2019-05-06T01:52:34.375Z,99.99
2019-05-06T01:53:33.827Z,99.99
2019-05-06T01:54:34.326Z,99.99
2019-05-06T01:55:34.317Z,99.99
2019-05-06T01:56:33.745Z,99.99
2019-05-06T01:57:33.770Z,99.99
2019-05-06T01:58:33.567Z,99.99
2019-05-06T01:59:34.035Z,99.99
2019-05-06T02:00:34.369Z,99.99
2019-05-06T02:01:34.121Z,99.99
2019-05-06T02:02:34.373Z,99.99
2019-05-06T02:03:34.608Z,99.99
2019-05-06T02:04:33.781Z,99.99
2019-05-06T02:05:33.699Z,99.99
2019-05-06T02:06:34.274Z,99.99
2019-05-06T02:07:34.799Z,99.99
2019-05-06T02:08:33.704Z,99.99
2019-05-06T02:09:34.293Z,99.99
2019-05-06T02:10:34.517Z,99.99
2019-05-06T02:11:33.787Z,99.99
2019-05-06T02:12:34.208Z,99.99
2019-05-06T02:13:34.810Z,99.99
2019-05-06T02:14:34.164Z,99.99
2019-05-06T02:15:34.511Z,99.99
2019-05-06T02:16:34.294Z,99.99
2019-05-06T02:17:34.373Z,99.99
2019-05-06T02:18:33.966Z,99.99
2019-05-06T02:19:34.535Z,99.99
2019-05-06T02:20:34.018Z,99.99
2019-05-06T02:21:33.693Z,99.99
2019-05-06T02:22:34.472Z,99.99
2019-05-06T02:23:33.850Z,99.99
2019-05-06T02:24:33.779Z,99.99
2019-05-06T02:25:34.173Z,99.99
2019-05-06T02:26:34.209Z,99.99
2019-05-06T02:27:34.120Z,99.99
2019-05-06T02:28:34.362Z,99.99
2019-05-06T02:29:34.122Z,99.99
2019-05-06T02:30:36.128Z,99.99
2019-05-06T02:31:35.166Z,99.99
2019-05-06T02:32:35.702Z,99.99
2019-05-06T02:33:35.352Z,99.99
2019-05-06T02:34:32.200Z,99.99
2019-05-06T02:35:34.688Z,99.99
2019-05-06T02:36:34.402Z,99.99
2019-05-06T02:37:34.758Z,99.99
2019-05-06T02:38:39.090Z,99.99
2019-05-06T02:39:34.112Z,99.99
2019-05-06T02:40:33.218Z,99.99
2019-05-06T02:41:33.778Z,99.99
2019-05-06T02:42:33.711Z,99.99
2019-05-06T02:43:34.550Z,99.99
2019-05-06T02:44:33.552Z,99.99
2019-05-06T02:45:33.552Z,99.99
2019-05-06T02:46:33.742Z,99.99
2019-05-06T02:47:34.308Z,99.99
2019-05-06T02:48:33.498Z,99.99
2019-05-06T02:49:32.984Z,99.99
2019-05-06T02:50:33.953Z,99.99
2019-05-06T02:51:33.321Z,99.99
2019-05-06T02:52:33.006Z,99.99
2019-05-06T02:53:33.399Z,99.99
2019-05-06T02:54:34.410Z,99.99
2019-05-06T02:55:36.069Z,99.99
2019-05-06T02:56:33.364Z,99.99
2019-05-06T02:57:33.496Z,99.99
2019-05-06T02:58:33.008Z,99.99
2019-05-06T02:59:33.140Z,99.99
2019-05-06T03:00:33.026Z,99.99
2019-05-06T03:01:34.051Z,99.99
2019-05-06T03:02:42.103Z,99.99
2019-05-06T03:03:33.695Z,99.99
2019-05-06T03:04:33.240Z,99.99
2019-05-06T03:05:33.301Z,99.99
2019-05-06T03:06:33.810Z,99.99
2019-05-06T03:07:32.769Z,99.99
2019-05-06T03:08:32.930Z,99.99
2019-05-06T03:09:34.022Z,99.99
2019-05-06T03:10:32.884Z,99.99
2019-05-06T03:11:33.202Z,99.99
2019-05-06T03:12:33.534Z,99.99
2019-05-06T03:13:34.029Z,99.99
2019-05-06T03:14:34.660Z,99.99
2019-05-06T03:15:34.324Z,99.99
2019-05-06T03:16:33.351Z,99.99
2019-05-06T03:17:32.894Z,99.99
2019-05-06T03:18:32.820Z,99.99
2019-05-06T03:19:34.172Z,99.99
2019-05-06T03:20:32.414Z,99.99
2019-05-06T03:21:33.724Z,99.99
2019-05-06T03:22:34.491Z,99.99
2019-05-06T03:23:34.698Z,99.99
2019-05-06T03:24:33.079Z,99.99
2019-05-06T03:25:33.118Z,99.99
2019-05-06T03:26:33.179Z,99.99
2019-05-06T03:27:32.917Z,99.99
2019-05-06T03:28:33.335Z,99.99
2019-05-06T03:29:33.432Z,99.99
2019-05-06T03:30:36.233Z,99.99
2019-05-06T03:31:35.979Z,99.99
2019-05-06T03:32:37.618Z,99.99
2019-05-06T03:33:50.750Z,99.99
2019-05-06T03:34:52.386Z,99.99
2019-05-06T03:35:49.213Z,99.99
2019-05-06T03:36:39.722Z,99.99
2019-05-06T03:37:33.478Z,99.99
2019-05-06T03:38:33.455Z,99.99
2019-05-06T03:39:33.794Z,99.99
2019-05-06T03:40:36.075Z,99.99
2019-05-06T03:41:33.769Z,99.99
2019-05-06T03:42:33.469Z,99.99
2019-05-06T03:43:33.795Z,99.99
2019-05-06T03:44:33.027Z,99.99
2019-05-06T03:45:33.469Z,99.99
2019-05-06T03:46:33.647Z,99.99
2019-05-06T03:47:34.555Z,99.99
2019-05-06T03:48:33.289Z,99.99
2019-05-06T03:49:33.894Z,99.99
2019-05-06T03:50:33.636Z,99.99
2019-05-06T03:51:34.293Z,99.99
2019-05-06T03:52:34.191Z,99.99
2019-05-06T03:53:33.346Z,99.99
2019-05-06T03:54:34.182Z,99.99
2019-05-06T03:55:33.987Z,99.99
2019-05-06T03:56:33.898Z,99.99
2019-05-06T03:57:35.441Z,99.99
2019-05-06T03:58:34.470Z,99.99
2019-05-06T03:59:33.509Z,99.99
2019-05-06T04:00:33.361Z,99.99
2019-05-06T04:01:33.675Z,99.99
2019-05-06T04:02:33.591Z,99.99
2019-05-06T04:03:44.187Z,99.99
2019-05-06T04:04:33.180Z,99.99
2019-05-06T04:05:33.400Z,99.99
2019-05-06T04:06:33.284Z,99.99
2019-05-06T04:07:33.899Z,99.99
2019-05-06T04:08:33.906Z,99.99
2019-05-06T04:09:36.307Z,99.99
2019-05-06T04:10:33.783Z,99.99
2019-05-06T04:11:35.781Z,99.99
2019-05-06T04:12:33.158Z,99.99
2019-05-06T04:13:33.220Z,99.99
2019-05-06T04:14:33.776Z,99.99
2019-05-06T04:15:34.053Z,99.99
2019-05-06T04:16:33.635Z,99.99
2019-05-06T04:17:32.944Z,99.99
2019-05-06T04:18:33.365Z,99.99
2019-05-06T04:19:33.397Z,99.99
2019-05-06T04:20:33.969Z,99.99
2019-05-06T04:21:32.930Z,99.99
2019-05-06T04:22:33.297Z,99.99
2019-05-06T04:23:33.188Z,99.99
2019-05-06T04:24:33.608Z,99.99
2019-05-06T04:25:33.844Z,99.99
2019-05-06T04:26:32.923Z,99.99
2019-05-06T04:27:33.533Z,99.99
2019-05-06T04:28:33.970Z,99.99
2019-05-06T04:29:33.046Z,99.99
2019-05-06T04:30:33.390Z,99.99
2019-05-06T04:31:33.546Z,99.99
2019-05-06T04:32:33.837Z,99.99
2019-05-06T04:33:33.206Z,99.99
2019-05-06T04:34:33.179Z,99.99
2019-05-06T04:35:33.593Z,99.99
2019-05-06T04:36:33.629Z,99.99
2019-05-06T04:37:33.721Z,99.99
2019-05-06T04:38:33.523Z,99.99
2019-05-06T04:39:33.126Z,99.99
2019-05-06T04:40:33.079Z,99.99
2019-05-06T04:41:33.829Z,99.99
2019-05-06T04:42:34.129Z,99.99
2019-05-06T04:43:33.629Z,99.99
2019-05-06T04:44:33.073Z,99.99
2019-05-06T04:45:33.437Z,99.99
2019-05-06T04:46:34.337Z,99.99
2019-05-06T04:47:32.758Z,99.99
2019-05-06T04:48:33.061Z,99.99
2019-05-06T04:49:33.041Z,99.99
2019-05-06T04:50:33.094Z,99.99
2019-05-06T04:51:32.824Z,99.99
2019-05-06T04:52:33.982Z,99.99
2019-05-06T04:53:33.725Z,99.99
2019-05-06T04:54:33.683Z,99.99
2019-05-06T04:55:33.385Z,99.99
2019-05-06T04:56:33.245Z,99.99
2019-05-06T04:57:33.377Z,99.99
2019-05-06T04:58:33.278Z,99.99
2019-05-06T04:59:32.577Z,99.99
2019-05-06T05:00:33.060Z,99.99
2019-05-06T05:01:33.873Z,99.99
2019-05-06T05:02:33.435Z,99.99
2019-05-06T05:03:33.375Z,99.99
2019-05-06T05:04:32.679Z,99.99
2019-05-06T05:05:33.080Z,99.99
2019-05-06T05:06:32.856Z,99.99
2019-05-06T05:07:33.202Z,99.99
2019-05-06T05:08:33.131Z,99.99
2019-05-06T05:09:32.515Z,99.99
2019-05-06T05:10:32.311Z,99.99
2019-05-06T05:11:33.074Z,99.99
2019-05-06T05:12:33.461Z,99.99
2019-05-06T05:13:32.966Z,99.99
2019-05-06T05:14:32.669Z,99.99
2019-05-06T05:15:32.534Z,99.99
2019-05-06T05:16:33.005Z,99.99
2019-05-06T05:17:32.966Z,99.99
2019-05-06T05:18:32.074Z,99.99
2019-05-06T05:19:32.581Z,99.99
2019-05-06T05:20:37.748Z,99.99
2019-05-06T05:21:32.258Z,99.93
2019-05-06T05:22:32.468Z,99.99
2019-05-06T05:23:31.900Z,99.99
2019-05-06T05:24:31.726Z,99.99
2019-05-06T05:25:30.507Z,99.99
2019-05-06T05:26:32.272Z,99.99
2019-05-06T05:27:32.800Z,99.99
2019-05-06T05:28:32.026Z,99.99
2019-05-06T05:29:32.396Z,99.99
2019-05-06T05:30:32.699Z,99.99
2019-05-06T05:31:32.878Z,99.99
2019-05-06T05:32:32.110Z,99.99
2019-05-06T05:33:32.524Z,99.99
2019-05-06T05:34:39.560Z,99.99
2019-05-06T05:35:32.166Z,99.99
2019-05-06T05:36:32.604Z,99.99
2019-05-06T05:37:30.406Z,99.99
2019-05-06T05:38:32.082Z,99.99
2019-05-06T05:39:30.391Z,99.99
2019-05-06T05:40:32.208Z,99.99
2019-05-06T05:41:30.378Z,99.99
2019-05-06T05:42:32.633Z,99.51
2019-05-06T05:43:32.532Z,99.22
2019-05-06T05:44:32.278Z,95.12
2019-05-06T05:45:30.341Z,93.94
2019-05-06T05:46:30.340Z,94.60
2019-05-06T05:47:30.325Z,95.17
2019-05-06T05:48:32.425Z,95.84
2019-05-06T05:49:32.332Z,95.94
2019-05-06T05:50:32.355Z,95.41
2019-05-06T05:51:32.047Z,95.60
2019-05-06T05:52:32.707Z,95.70
2019-05-06T05:53:30.276Z,95.41
2019-05-06T05:54:30.273Z,95.32
2019-05-06T05:55:30.267Z,94.37
2019-05-06T05:56:32.623Z,93.70
2019-05-06T05:57:32.183Z,92.84
2019-05-06T05:58:32.879Z,92.36
2019-05-06T05:59:32.703Z,92.08
2019-05-06T06:00:32.273Z,92.18
2019-05-06T06:01:32.475Z,89.70
2019-05-06T06:02:30.215Z,91.22
2019-05-06T06:03:31.989Z,89.46
2019-05-06T06:04:32.040Z,90.12
2019-05-06T06:05:30.183Z,89.46
2019-05-06T06:06:30.175Z,89.17
2019-05-06T06:07:30.167Z,89.94
2019-05-06T06:08:32.107Z,89.46
2019-05-06T06:09:30.161Z,90.12
2019-05-06T06:10:30.149Z,89.84
2019-05-06T06:11:32.684Z,89.55
2019-05-06T06:12:32.332Z,89.17
2019-05-06T06:13:32.036Z,88.03
2019-05-06T06:14:30.121Z,88.22
2019-05-06T06:15:30.106Z,88.26
2019-05-06T06:16:30.106Z,87.69
2019-05-06T06:17:30.098Z,87.65
2019-05-06T06:18:30.088Z,86.45
2019-05-06T06:19:30.080Z,86.79
2019-05-06T06:20:30.074Z,87.21
2019-05-06T06:21:32.048Z,86.60
2019-05-06T06:22:30.066Z,86.22
2019-05-06T06:23:30.056Z,85.74
2019-05-06T06:24:32.057Z,85.93
2019-05-06T06:25:30.051Z,85.46
2019-05-06T06:26:32.340Z,85.17
2019-05-06T06:27:30.029Z,85.17
2019-05-06T06:28:30.043Z,85.74
2019-05-06T06:29:32.230Z,85.74
2019-05-06T06:30:30.005Z,85.46
2019-05-06T06:31:30.001Z,85.74
2019-05-06T06:32:29.991Z,85.27
2019-05-06T06:33:29.992Z,86.03
2019-05-06T06:34:29.985Z,86.51
2019-05-06T06:35:29.975Z,86.65
2019-05-06T06:36:29.966Z,85.88
2019-05-06T06:37:29.959Z,85.41
2019-05-06T06:38:32.259Z,85.60
2019-05-06T06:39:29.941Z,85.31
2019-05-06T06:40:29.938Z,85.02
2019-05-06T06:41:32.202Z,84.64
2019-05-06T06:42:29.934Z,84.36
2019-05-06T06:43:29.914Z,83.88
2019-05-06T06:44:29.906Z,84.64
2019-05-06T06:45:29.907Z,84.55
2019-05-06T06:46:32.225Z,85.21
2019-05-06T06:47:31.927Z,84.83
2019-05-06T06:48:31.942Z,83.12
2019-05-06T06:49:29.883Z,82.92
2019-05-06T06:50:29.869Z,83.12
2019-05-06T06:51:29.862Z,83.21
2019-05-06T06:52:29.851Z,83.59
2019-05-06T06:53:29.850Z,83.78
2019-05-06T06:54:32.174Z,83.97
2019-05-06T06:55:31.741Z,84.07
2019-05-06T06:56:29.836Z,84.83
2019-05-06T06:57:32.345Z,84.26
2019-05-06T06:58:29.811Z,85.02
2019-05-06T06:59:31.761Z,85.12
2019-05-06T07:00:29.797Z,83.88
2019-05-06T07:01:29.792Z,83.78
2019-05-06T07:02:29.786Z,84.78
2019-05-06T07:03:29.784Z,84.01
2019-05-06T07:04:32.275Z,82.20
2019-05-06T07:05:29.772Z,81.58
2019-05-06T07:06:29.767Z,82.82
2019-05-06T07:07:41.430Z,82.72
2019-05-06T07:08:34.847Z,81.14
2019-05-06T07:09:29.847Z,80.47
2019-05-06T07:10:32.261Z,79.14
2019-05-06T07:11:29.765Z,77.89
2019-05-06T07:12:29.734Z,77.51
2019-05-06T07:13:29.775Z,77.13
2019-05-06T07:14:29.732Z,76.40
2019-05-06T07:15:29.722Z,75.07
2019-05-06T07:16:29.713Z,74.98
2019-05-06T07:17:29.716Z,75.30
2019-05-06T07:18:29.721Z,73.86
2019-05-06T07:19:29.708Z,73.67
2019-05-06T07:20:32.382Z,73.58
2019-05-06T07:21:29.812Z,72.53
2019-05-06T07:22:29.701Z,71.67
2019-05-06T07:23:29.695Z,71.03
2019-05-06T07:24:29.698Z,70.65
2019-05-06T07:25:29.696Z,70.36
2019-05-06T07:26:31.690Z,70.84
2019-05-06T07:27:29.695Z,71.22
2019-05-06T07:28:29.688Z,71.32
2019-05-06T07:29:29.686Z,71.42
2019-05-06T07:30:29.687Z,69.73
2019-05-06T07:31:29.684Z,69.60
2019-05-06T07:32:29.680Z,69.82
2019-05-06T07:33:29.682Z,69.06
2019-05-06T07:34:29.677Z,69.15
2019-05-06T07:35:38.431Z,67.34
2019-05-06T07:36:29.670Z,66.63
2019-05-06T07:37:29.680Z,66.44
2019-05-06T07:38:29.673Z,66.57
2019-05-06T07:39:29.663Z,67.43
2019-05-06T07:40:29.670Z,67.21
2019-05-06T07:41:29.672Z,65.68
2019-05-06T07:42:29.664Z,65.71
2019-05-06T07:43:29.660Z,65.52
2019-05-06T07:44:29.659Z,65.61
2019-05-06T07:45:29.662Z,66.76
2019-05-06T07:46:29.663Z,67.05
2019-05-06T07:47:29.657Z,67.24
2019-05-06T07:48:31.910Z,66.16
2019-05-06T07:49:29.656Z,66.57
2019-05-06T07:50:29.654Z,66.57
2019-05-06T07:51:29.652Z,65.97
2019-05-06T07:52:29.651Z,65.77
2019-05-06T07:53:32.011Z,65.33
2019-05-06T07:54:29.647Z,64.43
2019-05-06T07:55:29.642Z,63.99
2019-05-06T07:56:32.068Z,63.19
2019-05-06T07:57:29.648Z,63.57
2019-05-06T07:58:29.643Z,64.43
2019-05-06T07:59:29.641Z,64.53
2019-05-06T08:00:29.637Z,65.30
2019-05-06T08:01:29.633Z,65.11
2019-05-06T08:02:31.964Z,65.68
2019-05-06T08:03:29.629Z,66.54
2019-05-06T08:04:29.633Z,66.63
2019-05-06T08:05:32.177Z,66.25
2019-05-06T08:06:29.624Z,66.54
2019-05-06T08:07:29.619Z,66.06
2019-05-06T08:08:29.621Z,65.26
2019-05-06T08:09:29.619Z,64.59
2019-05-06T08:10:29.617Z,64.98
2019-05-06T08:11:29.614Z,64.50
2019-05-06T08:12:29.612Z,65.26
2019-05-06T08:13:31.758Z,64.98
2019-05-06T08:14:29.603Z,66.28
2019-05-06T08:15:29.599Z,65.71
2019-05-06T08:16:31.822Z,66.09
2019-05-06T08:17:29.597Z,64.85
2019-05-06T08:18:29.594Z,64.47
2019-05-06T08:19:29.589Z,64.53
2019-05-06T08:20:29.585Z,65.30
2019-05-06T08:21:29.586Z,65.77
2019-05-06T08:22:29.583Z,66.25
2019-05-06T08:23:29.575Z,66.44
2019-05-06T08:24:29.571Z,66.72
2019-05-06T08:25:29.565Z,65.87
2019-05-06T08:26:29.560Z,66.44
2019-05-06T08:27:29.561Z,66.25
2019-05-06T08:28:38.657Z,67.11
2019-05-06T08:29:29.553Z,67.87
2019-05-06T08:30:29.597Z,68.73
2019-05-06T08:31:29.546Z,68.54
2019-05-06T08:32:29.539Z,68.44
2019-05-06T08:33:29.537Z,68.73
2019-05-06T08:34:29.529Z,67.68
2019-05-06T08:35:29.523Z,67.55
2019-05-06T08:36:29.521Z,67.74
2019-05-06T08:37:29.513Z,68.44
2019-05-06T08:38:29.509Z,68.98
2019-05-06T08:39:29.502Z,68.54
2019-05-06T08:40:29.498Z,68.60
2019-05-06T08:41:29.497Z,69.08
2019-05-06T08:42:29.491Z,68.70
2019-05-06T08:43:29.486Z,68.79
2019-05-06T08:44:29.481Z,68.60
2019-05-06T08:45:29.476Z,68.60
2019-05-06T08:46:29.468Z,68.98
2019-05-06T08:47:29.462Z,69.37
2019-05-06T08:48:29.473Z,70.22
2019-05-06T08:49:29.455Z,70.13
2019-05-06T08:50:29.452Z,70.98
2019-05-06T08:51:29.456Z,71.08
2019-05-06T08:52:29.438Z,70.79
2019-05-06T08:53:29.434Z,70.22
2019-05-06T08:54:29.453Z,70.70
2019-05-06T08:55:29.422Z,71.08
2019-05-06T08:56:29.424Z,70.98
2019-05-06T08:57:29.410Z,70.89
2019-05-06T08:58:29.404Z,70.22
2019-05-06T08:59:29.396Z,70.98
2019-05-06T09:00:29.391Z,70.61
2019-05-06T09:01:29.389Z,70.26
2019-05-06T09:02:29.386Z,70.92
2019-05-06T09:03:29.379Z,70.73
2019-05-06T09:04:29.373Z,70.54
2019-05-06T09:05:29.365Z,70.54
2019-05-06T09:06:33.075Z,70.45
2019-05-06T09:07:29.362Z,69.68
2019-05-06T09:08:29.354Z,69.72
2019-05-06T09:09:29.346Z,69.40
2019-05-06T09:10:29.341Z,68.73
2019-05-06T09:11:29.335Z,68.92
2019-05-06T09:12:29.335Z,69.02
2019-05-06T09:13:29.334Z,68.44
2019-05-06T09:14:29.328Z,69.31
2019-05-06T09:15:29.324Z,69.21
2019-05-06T09:16:29.315Z,69.11
2019-05-06T09:17:29.308Z,69.11
2019-05-06T09:18:29.304Z,69.68
2019-05-06T09:19:29.299Z,70.26
2019-05-06T09:20:29.294Z,70.70
2019-05-06T09:21:29.299Z,70.73
2019-05-06T09:22:29.286Z,70.92
2019-05-06T09:23:29.288Z,70.32
2019-05-06T09:24:29.273Z,68.82
2019-05-06T09:25:29.269Z,68.73
2019-05-06T09:26:29.265Z,68.12
2019-05-06T09:27:29.260Z,69.27
2019-05-06T09:28:29.256Z,69.84
2019-05-06T09:29:29.247Z,70.45
2019-05-06T09:30:29.243Z,70.70
2019-05-06T09:31:29.237Z,69.74
2019-05-06T09:32:29.261Z,68.79
2019-05-06T09:33:29.238Z,68.73
2019-05-06T09:34:29.225Z,69.02
2019-05-06T09:35:29.225Z,68.35
2019-05-06T09:36:41.321Z,68.54
2019-05-06T09:37:29.206Z,67.58
2019-05-06T09:38:29.211Z,67.21
2019-05-06T09:39:29.203Z,67.21
2019-05-06T09:40:29.196Z,67.49
2019-05-06T09:41:29.191Z,67.01
2019-05-06T09:42:29.183Z,67.77
2019-05-06T09:43:29.179Z,67.87
2019-05-06T09:44:29.173Z,67.97
2019-05-06T09:45:29.172Z,67.01
2019-05-06T09:46:29.166Z,66.25
2019-05-06T09:47:29.161Z,66.63
2019-05-06T09:48:29.158Z,66.38
2019-05-06T09:49:29.153Z,66.15
2019-05-06T09:50:29.150Z,65.48
2019-05-06T09:51:29.140Z,65.87
2019-05-06T09:52:29.133Z,66.53
2019-05-06T09:53:29.134Z,65.87
2019-05-06T09:54:29.131Z,64.53
2019-05-06T09:55:29.122Z,64.43
2019-05-06T09:56:29.120Z,65.10
2019-05-06T09:57:29.119Z,66.06
2019-05-06T09:58:29.116Z,66.06
2019-05-06T09:59:29.104Z,66.06
2019-05-06T10:00:29.105Z,65.58
2019-05-06T10:01:29.090Z,65.58
2019-05-06T10:02:29.090Z,65.58
2019-05-06T10:03:29.120Z,65.10
2019-05-06T10:04:29.081Z,65.20
2019-05-06T10:05:29.077Z,65.20
2019-05-06T10:06:29.073Z,64.85
2019-05-06T10:07:29.067Z,64.94
2019-05-06T10:08:29.066Z,64.85
2019-05-06T10:09:29.055Z,64.85
2019-05-06T10:10:29.053Z,65.23
2019-05-06T10:11:29.055Z,65.61
2019-05-06T10:12:29.044Z,65.14
2019-05-06T10:13:29.038Z,64.65
2019-05-06T10:14:29.031Z,64.75
2019-05-06T10:15:29.026Z,65.61
2019-05-06T10:16:29.029Z,65.33
2019-05-06T10:17:29.022Z,65.17
2019-05-06T10:18:29.018Z,65.07
2019-05-06T10:19:29.014Z,65.36
2019-05-06T10:20:29.008Z,64.22
2019-05-06T10:21:29.001Z,63.64
2019-05-06T10:22:28.995Z,64.50
2019-05-06T10:23:28.992Z,64.22
2019-05-06T10:24:28.988Z,64.69
2019-05-06T10:25:28.988Z,65.45
2019-05-06T10:26:28.984Z,65.36
2019-05-06T10:27:28.975Z,64.69
2019-05-06T10:28:28.973Z,63.64
2019-05-06T10:29:28.969Z,63.35
2019-05-06T10:30:28.966Z,64.22
2019-05-06T10:31:28.961Z,64.22
2019-05-06T10:32:28.957Z,63.35
2019-05-06T10:33:28.949Z,63.26
2019-05-06T10:34:28.946Z,62.49
2019-05-06T10:35:29.685Z,62.59
2019-05-06T10:36:28.945Z,62.78
2019-05-06T10:37:28.937Z,63.19
2019-05-06T10:38:28.935Z,62.81
2019-05-06T10:39:28.931Z,62.90
2019-05-06T10:40:28.921Z,62.71
2019-05-06T10:41:28.918Z,62.90
2019-05-06T10:42:28.915Z,62.04
2019-05-06T10:43:28.913Z,61.95
2019-05-06T10:44:28.912Z,62.43
2019-05-06T10:45:28.904Z,63.19
2019-05-06T10:46:28.911Z,63.70
2019-05-06T10:47:28.897Z,63.03
2019-05-06T10:48:28.892Z,62.94
2019-05-06T10:49:28.891Z,63.51
2019-05-06T10:50:28.895Z,63.42
2019-05-06T10:51:28.889Z,63.42
2019-05-06T10:52:28.885Z,62.08
2019-05-06T10:53:28.879Z,60.58
2019-05-06T10:54:28.873Z,60.86
2019-05-06T10:55:28.873Z,60.16
2019-05-06T10:56:28.873Z,61.15
2019-05-06T10:57:28.868Z,61.69
2019-05-06T10:58:28.867Z,62.27
2019-05-06T10:59:28.861Z,61.12
2019-05-06T11:00:28.857Z,61.02
2019-05-06T11:01:28.858Z,61.44
2019-05-06T11:02:28.859Z,61.05
2019-05-06T11:03:28.857Z,60.64
2019-05-06T11:04:28.846Z,59.97
2019-05-06T11:05:28.846Z,60.26
2019-05-06T11:06:28.842Z,60.74
2019-05-06T11:07:32.123Z,60.64
2019-05-06T11:08:28.841Z,60.83
2019-05-06T11:09:28.839Z,60.74
2019-05-06T11:10:38.060Z,60.93
2019-05-06T11:11:35.048Z,60.93
2019-05-06T11:12:28.825Z,60.64
2019-05-06T11:13:28.831Z,61.79
2019-05-06T11:14:28.813Z,62.62
2019-05-06T11:15:28.820Z,62.14
2019-05-06T11:16:28.816Z,61.95
2019-05-06T11:17:28.818Z,62.33
2019-05-06T11:18:28.818Z,62.71
2019-05-06T11:19:28.807Z,63.76
2019-05-06T11:20:28.804Z,63.35
2019-05-06T11:21:28.804Z,63.73
2019-05-06T11:22:28.804Z,63.45
2019-05-06T11:23:28.795Z,64.50
2019-05-06T11:24:28.794Z,65.26
2019-05-06T11:25:28.787Z,65.26
2019-05-06T11:26:28.799Z,65.74
2019-05-06T11:27:32.690Z,65.26
2019-05-06T11:28:28.780Z,65.17
2019-05-06T11:29:28.776Z,65.74
2019-05-06T11:30:28.773Z,65.64
2019-05-06T11:31:28.812Z,65.90
2019-05-06T11:32:28.762Z,66.38
2019-05-06T11:33:28.761Z,66.99
2019-05-06T11:34:28.755Z,66.99
2019-05-06T11:35:28.783Z,67.05
2019-05-06T11:36:28.744Z,67.14
2019-05-06T11:37:42.911Z,66.66
2019-05-06T11:38:28.738Z,66.85
2019-05-06T11:39:28.730Z,66.76
2019-05-06T11:40:28.727Z,66.85
2019-05-06T11:41:28.727Z,67.81
2019-05-06T11:42:32.445Z,67.91
2019-05-06T11:43:28.717Z,68.00
2019-05-06T11:44:28.708Z,68.00
2019-05-06T11:45:28.707Z,67.71
2019-05-06T11:46:28.698Z,68.00
2019-05-06T11:47:28.700Z,67.71
2019-05-06T11:48:28.722Z,67.81
2019-05-06T11:49:28.683Z,68.38
2019-05-06T11:50:28.678Z,68.76
2019-05-06T11:51:28.673Z,68.76
2019-05-06T11:52:28.668Z,68.86
2019-05-06T11:53:28.670Z,68.96
2019-05-06T11:54:28.663Z,69.72
2019-05-06T11:55:33.751Z,70.48
2019-05-06T11:56:28.651Z,69.72
2019-05-06T11:57:28.642Z,69.34
2019-05-06T11:58:28.644Z,69.24
2019-05-06T11:59:28.632Z,69.15
2019-05-06T12:00:28.627Z,70.01
2019-05-06T12:01:28.619Z,70.67
2019-05-06T12:02:28.621Z,70.77
2019-05-06T12:03:28.611Z,70.48
2019-05-06T12:04:28.611Z,71.06
2019-05-06T12:05:28.603Z,70.48
2019-05-06T12:06:28.600Z,71.15
2019-05-06T12:07:28.583Z,71.25
2019-05-06T12:08:28.593Z,71.34
2019-05-06T12:09:28.584Z,71.34
2019-05-06T12:10:28.580Z,71.53
2019-05-06T12:11:28.567Z,72.30
2019-05-06T12:12:28.563Z,71.76
2019-05-06T12:13:28.562Z,71.38
2019-05-06T12:14:28.557Z,71.28
2019-05-06T12:15:28.551Z,70.90
2019-05-06T12:16:28.547Z,69.37
2019-05-06T12:17:28.537Z,68.32
2019-05-06T12:18:28.536Z,68.23
2019-05-06T12:19:28.528Z,68.90
2019-05-06T12:20:28.526Z,68.51
2019-05-06T12:21:28.518Z,68.41
2019-05-06T12:22:28.515Z,68.32
2019-05-06T12:23:28.507Z,69.18
2019-05-06T12:24:28.507Z,69.18
2019-05-06T12:25:28.507Z,69.18
2019-05-06T12:26:28.508Z,68.51
2019-05-06T12:27:28.496Z,68.41
2019-05-06T12:28:28.487Z,69.09
2019-05-06T12:29:28.477Z,70.33
2019-05-06T12:30:28.475Z,71.00
2019-05-06T12:31:28.467Z,71.09
2019-05-06T12:32:28.461Z,71.09
2019-05-06T12:33:28.467Z,70.29
2019-05-06T12:34:28.458Z,70.90
2019-05-06T12:35:28.448Z,70.29
2019-05-06T12:36:28.443Z,70.14
2019-05-06T12:37:28.440Z,69.18
2019-05-06T12:38:30.798Z,68.32
2019-05-06T12:39:28.436Z,67.84
2019-05-06T12:40:28.426Z,68.00
2019-05-06T12:41:28.418Z,68.57
2019-05-06T12:42:28.413Z,68.29
2019-05-06T12:43:28.405Z,67.91
2019-05-06T12:44:28.404Z,66.76
2019-05-06T12:45:28.401Z,64.65
2019-05-06T12:46:28.396Z,64.56
2019-05-06T12:47:28.390Z,63.80
2019-05-06T12:48:28.385Z,63.51
2019-05-06T12:49:28.377Z,63.42
2019-05-06T12:50:28.377Z,63.23
2019-05-06T12:51:28.368Z,63.80
2019-05-06T12:52:28.362Z,63.99